createdAt,value
2019-06-25T00:01:27.491Z,70.70
2019-06-25T00:03:54.546Z,71.30
2019-06-25T00:06:21.401Z,72.00
2019-06-25T00:08:48.234Z,72.50
2019-06-25T00:11:14.823Z,74.00
2019-06-25T00:13:41.309Z,74.40
2019-06-25T00:16:08.205Z,73.00
2019-06-25T00:18:34.997Z,73.10
2019-06-25T00:21:01.501Z,72.20
2019-06-25T00:23:28.238Z,71.80
2019-06-25T00:25:54.697Z,71.90
2019-06-25T00:28:21.269Z,71.70
2019-06-25T00:30:47.979Z,71.80
2019-06-25T00:33:14.650Z,71.00
2019-06-25T00:35:41.376Z,71.00
2019-06-25T00:38:08.141Z,70.70
2019-06-25T00:40:35.002Z,70.90
2019-06-25T00:43:01.744Z,70.50
2019-06-25T00:45:28.473Z,70.00
2019-06-25T00:47:54.936Z,69.90
2019-06-25T00:50:21.734Z,69.60
2019-06-25T00:52:48.705Z,69.80
2019-06-25T00:55:15.243Z,70.00
2019-06-25T00:57:42.611Z,69.70
2019-06-25T01:00:13.489Z,69.70
2019-06-25T01:02:50.514Z,70.20
2019-06-25T01:05:17.219Z,69.80
2019-06-25T01:07:43.686Z,69.60
2019-06-25T01:10:10.147Z,70.00
2019-06-25T01:12:36.642Z,70.00
2019-06-25T01:15:03.183Z,70.30
2019-06-25T01:17:29.680Z,70.40
2019-06-25T01:19:56.421Z,70.30
2019-06-25T01:22:23.223Z,70.70
2019-06-25T01:24:50.387Z,70.80
2019-06-25T01:27:17.090Z,70.80
2019-06-25T01:29:43.914Z,71.30
2019-06-25T01:32:10.455Z,71.40
2019-06-25T01:34:36.994Z,71.70
2019-06-25T01:37:06.266Z,71.80
2019-06-25T01:39:33.108Z,72.50
2019-06-25T01:41:59.660Z,72.20
2019-06-25T01:44:26.246Z,71.90
2019-06-25T01:46:52.809Z,72.30
2019-06-25T01:49:19.306Z,72.20
2019-06-25T01:51:45.850Z,72.40
2019-06-25T01:54:12.582Z,72.90
2019-06-25T01:56:39.316Z,73.50
2019-06-25T01:59:06.114Z,73.40
2019-06-25T02:01:32.576Z,73.10
2019-06-25T02:03:59.357Z,73.90
2019-06-25T02:06:26.054Z,73.70
2019-06-25T02:08:52.810Z,73.70
2019-06-25T02:11:19.602Z,74.00
2019-06-25T02:13:46.603Z,73.60
2019-06-25T02:16:13.311Z,74.10
2019-06-25T02:18:39.874Z,74.40
2019-06-25T02:21:06.667Z,74.40
2019-06-25T02:23:33.791Z,74.20
2019-06-25T02:26:00.534Z,74.40
2019-06-25T02:28:27.561Z,74.60
2019-06-25T02:31:06.499Z,74.50
2019-06-25T02:33:22.652Z,74.60
2019-06-25T02:35:49.213Z,75.20
2019-06-25T02:38:15.982Z,75.10
2019-06-25T02:40:42.474Z,74.90
2019-06-25T02:43:09.286Z,75.40
2019-06-25T02:45:36.026Z,75.80
2019-06-25T02:48:02.481Z,76.00
2019-06-25T02:50:29.449Z,76.20
2019-06-25T02:52:55.907Z,76.50
2019-06-25T02:55:22.663Z,76.50
2019-06-25T02:57:49.375Z,76.10
2019-06-25T03:00:16.193Z,76.50
2019-06-25T03:02:43.003Z,76.40
2019-06-25T03:05:09.553Z,76.50
2019-06-25T03:07:36.123Z,76.70
2019-06-25T03:10:02.904Z,76.80
2019-06-25T03:12:29.709Z,76.50
2019-06-25T03:14:56.453Z,76.60
2019-06-25T03:17:23.179Z,76.80
2019-06-25T03:19:50.158Z,77.00
2019-06-25T03:22:17.232Z,76.70
2019-06-25T03:24:43.934Z,76.10
2019-06-25T03:27:10.671Z,73.00
2019-06-25T03:29:37.415Z,74.80
2019-06-25T03:32:08.902Z,74.90
2019-06-25T03:34:32.399Z,75.00
2019-06-25T03:36:59.398Z,75.00
2019-06-25T03:39:25.859Z,74.90
2019-06-25T03:41:52.357Z,74.90
2019-06-25T03:44:19.295Z,75.00
2019-06-25T03:46:45.773Z,74.80
2019-06-25T03:49:12.234Z,75.00
2019-06-25T03:51:38.792Z,74.30
2019-06-25T03:54:05.309Z,73.70
2019-06-25T03:56:32.278Z,73.50
2019-06-25T03:58:59.251Z,72.90
2019-06-25T04:01:25.968Z,72.50
2019-06-25T04:03:52.422Z,72.20
2019-06-25T04:06:19.157Z,72.50
2019-06-25T04:08:45.602Z,72.00
2019-06-25T04:11:12.289Z,72.30
2019-06-25T04:13:39.101Z,71.60
2019-06-25T04:16:05.902Z,72.20
2019-06-25T04:18:32.383Z,72.60
2019-06-25T04:20:58.866Z,73.10
2019-06-25T04:23:25.851Z,72.90
2019-06-25T04:25:52.658Z,72.90
2019-06-25T04:28:19.372Z,72.60
2019-06-25T04:30:47.087Z,72.90
2019-06-25T04:33:14.297Z,72.80
2019-06-25T04:35:41.278Z,72.70
2019-06-25T04:38:07.943Z,72.50
2019-06-25T04:40:34.479Z,71.80
2019-06-25T04:43:01.296Z,72.10
2019-06-25T04:45:28.008Z,71.80
2019-06-25T04:47:54.586Z,72.50
2019-06-25T04:50:21.094Z,71.40
2019-06-25T04:52:47.577Z,71.40
2019-06-25T04:55:14.233Z,70.90
2019-06-25T04:57:41.047Z,71.60
2019-06-25T05:00:07.804Z,71.30
2019-06-25T05:02:48.513Z,70.20
2019-06-25T05:05:03.344Z,70.30
2019-06-25T05:07:29.909Z,70.40
2019-06-25T05:09:56.478Z,70.20
2019-06-25T05:12:23.287Z,69.80
2019-06-25T05:14:50.279Z,70.20
2019-06-25T05:17:16.753Z,70.70
2019-06-25T05:19:43.232Z,70.90
2019-06-25T05:22:09.719Z,71.50
2019-06-25T05:24:36.217Z,71.90
2019-06-25T05:27:02.678Z,73.00
2019-06-25T05:29:29.653Z,72.40
2019-06-25T05:31:56.369Z,71.80
2019-06-25T05:34:22.851Z,71.40
2019-06-25T05:36:54.943Z,71.70
2019-06-25T05:39:21.456Z,71.90
2019-06-25T05:41:47.902Z,72.90
2019-06-25T05:44:14.880Z,72.30
2019-06-25T05:46:41.345Z,72.60
2019-06-25T05:49:08.344Z,72.70
2019-06-25T05:51:35.110Z,72.50
2019-06-25T05:54:02.094Z,72.80
2019-06-25T05:56:28.663Z,72.20
2019-06-25T05:58:55.742Z,72.90
2019-06-25T06:01:22.214Z,72.90
2019-06-25T06:03:49.181Z,74.40
2019-06-25T06:06:15.882Z,72.90
2019-06-25T06:08:42.838Z,74.30
2019-06-25T06:11:09.293Z,73.10
2019-06-25T06:13:36.198Z,72.80
2019-06-25T06:16:02.650Z,74.20
2019-06-25T06:18:32.795Z,73.90
2019-06-25T06:20:59.456Z,73.30
2019-06-25T06:23:25.988Z,71.80
2019-06-25T06:25:52.971Z,73.10
2019-06-25T06:28:19.657Z,72.20
2019-06-25T06:30:46.403Z,71.70
2019-06-25T06:33:13.357Z,70.70
2019-06-25T06:35:42.292Z,72.60
2019-06-25T06:38:08.472Z,68.80
2019-06-25T06:40:35.592Z,69.20
2019-06-25T06:43:02.303Z,69.20
2019-06-25T06:45:29.115Z,68.70
2019-06-25T06:47:56.162Z,68.20
2019-06-25T06:50:22.966Z,68.20
2019-06-25T06:52:49.426Z,68.60
2019-06-25T06:55:15.915Z,67.00
2019-06-25T06:57:42.759Z,67.00
2019-06-25T07:00:09.458Z,66.20
2019-06-25T07:02:36.248Z,66.90
2019-06-25T07:05:03.261Z,64.50
2019-06-25T07:07:29.727Z,64.20
2019-06-25T07:09:56.450Z,62.60
2019-06-25T07:12:23.187Z,61.30
2019-06-25T07:14:49.936Z,61.60
2019-06-25T07:17:16.643Z,61.10
2019-06-25T07:19:43.149Z,60.80
2019-06-25T07:22:16.709Z,61.60
2019-06-25T07:24:38.722Z,60.50
2019-06-25T07:27:05.314Z,61.40
2019-06-25T07:29:32.019Z,62.80
2019-06-25T07:31:58.742Z,63.70
2019-06-25T07:34:25.289Z,62.40
2019-06-25T07:36:52.182Z,63.10
2019-06-25T07:39:18.670Z,62.00
2019-06-25T07:41:45.224Z,62.50
2019-06-25T07:44:11.922Z,59.40
2019-06-25T07:46:38.666Z,58.80
2019-06-25T07:49:05.854Z,59.50
2019-06-25T07:51:32.582Z,58.80
2019-06-25T07:53:59.125Z,59.50
2019-06-25T07:56:35.997Z,58.60
2019-06-25T07:58:54.706Z,59.60
2019-06-25T08:01:21.512Z,60.40
2019-06-25T08:03:48.537Z,58.00
2019-06-25T08:06:15.335Z,57.60
2019-06-25T08:08:42.305Z,58.90
2019-06-25T08:11:09.375Z,59.60
2019-06-25T08:16:06.014Z,58.30
2019-06-25T08:18:32.963Z,58.80
2019-06-25T08:20:59.727Z,58.40
2019-06-25T08:23:26.468Z,58.40
2019-06-25T08:25:52.965Z,58.40
2019-06-25T08:28:19.426Z,56.60
2019-06-25T08:30:46.134Z,56.70
2019-06-25T08:33:12.862Z,57.00
2019-06-25T08:35:39.324Z,57.50
2019-06-25T08:38:06.237Z,58.40
2019-06-25T08:40:32.980Z,58.40
2019-06-25T08:42:59.561Z,57.50
2019-06-25T08:45:26.276Z,58.50
2019-06-25T08:47:53.347Z,58.20
2019-06-25T08:50:19.833Z,56.70
2019-06-25T08:52:57.615Z,56.20
2019-06-25T08:55:14.977Z,56.40
2019-06-25T08:57:41.434Z,53.10
2019-06-25T09:00:08.007Z,54.40
2019-06-25T09:02:34.564Z,53.30
2019-06-25T09:05:04.942Z,53.20
2019-06-25T09:07:29.772Z,54.00
2019-06-25T09:09:56.236Z,55.00
2019-06-25T09:12:22.828Z,55.50
2019-06-25T09:14:49.273Z,55.90
2019-06-25T09:17:16.273Z,55.10
2019-06-25T09:19:50.108Z,53.70
2019-06-25T09:22:11.458Z,53.50
2019-06-25T09:24:38.162Z,54.10
2019-06-25T09:27:04.958Z,52.30
2019-06-25T09:29:31.426Z,52.70
2019-06-25T09:31:58.152Z,52.60
2019-06-25T09:34:25.191Z,52.20
2019-06-25T09:36:51.987Z,52.20
2019-06-25T09:39:18.993Z,53.10
2019-06-25T09:41:45.148Z,52.40
2019-06-25T09:44:11.609Z,52.40
2019-06-25T09:46:38.525Z,53.60
2019-06-25T09:49:05.326Z,52.00
2019-06-25T09:51:32.101Z,51.60
2019-06-25T09:53:59.073Z,51.50
2019-06-25T09:56:25.802Z,50.60
2019-06-25T09:58:52.590Z,53.10
2019-06-25T10:01:26.546Z,56.40
2019-06-25T10:03:47.938Z,55.60
2019-06-25T10:06:14.388Z,53.90
2019-06-25T10:08:41.360Z,53.80
2019-06-25T10:11:07.854Z,54.00
2019-06-25T10:13:34.680Z,54.60
2019-06-25T10:16:01.617Z,54.70
2019-06-25T10:18:43.420Z,53.70
2019-06-25T10:20:56.478Z,54.40
2019-06-25T10:23:23.208Z,54.50
2019-06-25T10:25:49.923Z,55.40
2019-06-25T10:28:29.153Z,53.90
2019-06-25T10:30:48.638Z,54.00
2019-06-25T10:33:15.116Z,54.00
2019-06-25T10:35:47.227Z,53.90
2019-06-25T10:38:10.133Z,54.20
2019-06-25T10:40:36.923Z,55.00
2019-06-25T10:43:03.775Z,57.00
2019-06-25T10:45:30.355Z,55.90
2019-06-25T10:47:57.162Z,54.90
2019-06-25T10:50:23.867Z,54.50
2019-06-25T10:52:50.736Z,53.70
2019-06-25T10:55:17.305Z,54.10
2019-06-25T10:57:43.777Z,54.10
2019-06-25T11:00:10.234Z,53.90
2019-06-25T11:02:36.995Z,55.10
2019-06-25T11:05:04.015Z,54.20
2019-06-25T11:07:30.716Z,53.10
2019-06-25T11:09:57.443Z,53.50
2019-06-25T11:12:24.222Z,53.20
2019-06-25T11:14:50.795Z,52.20
2019-06-25T11:17:18.018Z,53.40
2019-06-25T11:19:44.853Z,52.80
2019-06-25T11:22:11.320Z,53.00
2019-06-25T11:24:38.487Z,52.70
2019-06-25T11:27:05.372Z,53.00
2019-06-25T11:29:31.846Z,51.20
2019-06-25T11:31:58.582Z,51.60
2019-06-25T11:34:25.306Z,51.30
2019-06-25T11:36:51.763Z,52.20
2019-06-25T11:39:18.297Z,52.30
2019-06-25T11:41:45.332Z,52.20
2019-06-25T11:44:11.813Z,51.20
2019-06-25T11:46:38.605Z,51.00
2019-06-25T11:49:05.113Z,50.70
2019-06-25T11:51:31.570Z,50.00
2019-06-25T11:53:58.319Z,48.80
2019-06-25T11:56:25.031Z,49.20
2019-06-25T11:58:52.121Z,49.50
2019-06-25T12:01:18.715Z,49.20
2019-06-25T12:03:45.258Z,50.40
2019-06-25T12:06:11.897Z,50.50
2019-06-25T12:08:38.763Z,50.30
2019-06-25T12:11:05.482Z,49.50
2019-06-25T12:13:32.038Z,49.10
2019-06-25T12:15:58.775Z,50.10
2019-06-25T12:18:25.235Z,50.50
2019-06-25T12:20:52.046Z,51.30
2019-06-25T12:23:18.734Z,50.20
2019-06-25T12:25:45.468Z,50.30
2019-06-25T12:28:12.190Z,48.70
2019-06-25T12:30:39.522Z,48.00
2019-06-25T12:33:06.655Z,48.10
2019-06-25T12:35:33.249Z,48.60
2019-06-25T12:38:00.218Z,49.60
2019-06-25T12:40:26.934Z,49.60
2019-06-25T12:42:53.921Z,50.00
2019-06-25T12:45:20.412Z,50.60
2019-06-25T12:47:46.970Z,49.80
2019-06-25T12:50:13.463Z,51.40
2019-06-25T12:52:39.925Z,51.40
2019-06-25T12:55:06.541Z,51.60
2019-06-25T12:57:34.413Z,51.40
2019-06-25T13:00:01.226Z,50.80
2019-06-25T13:02:27.982Z,51.10
2019-06-25T13:04:54.719Z,50.90
2019-06-25T13:07:25.758Z,52.00
2019-06-25T13:09:49.634Z,50.60
2019-06-25T13:12:16.613Z,50.70
2019-06-25T13:14:43.321Z,51.60
2019-06-25T13:17:10.050Z,50.40
2019-06-25T13:19:37.133Z,51.10
2019-06-25T13:22:04.476Z,50.60
2019-06-25T13:24:31.536Z,50.00
2019-06-25T13:26:58.283Z,50.40
2019-06-25T13:29:25.225Z,50.70
2019-06-25T13:31:51.978Z,50.30
2019-06-25T13:34:18.448Z,49.70
2019-06-25T13:36:45.151Z,50.20
2019-06-25T13:39:11.594Z,50.00
2019-06-25T13:41:38.617Z,49.90
2019-06-25T13:44:05.433Z,49.00
2019-06-25T13:46:32.426Z,49.90
2019-06-25T13:48:59.873Z,50.00
2019-06-25T13:51:26.364Z,49.50
2019-06-25T13:53:53.359Z,49.90
2019-06-25T13:56:20.115Z,48.60
2019-06-25T13:58:46.803Z,48.50
2019-06-25T14:01:13.549Z,48.80
2019-06-25T14:03:40.509Z,49.30
2019-06-25T14:06:07.316Z,49.90
2019-06-25T14:08:34.161Z,49.80
2019-06-25T14:11:00.983Z,49.70
2019-06-25T14:13:47.145Z,49.40
2019-06-25T14:16:13.874Z,50.70
2019-06-25T14:18:40.588Z,49.40
2019-06-25T14:21:07.772Z,49.00
2019-06-25T14:23:34.792Z,49.70
2019-06-25T14:26:10.332Z,49.90
2019-06-25T14:28:29.878Z,50.10
2019-06-25T14:30:56.590Z,49.00
2019-06-25T14:33:23.367Z,49.40
2019-06-25T14:35:50.178Z,49.10
2019-06-25T14:38:16.866Z,49.20
2019-06-25T14:40:43.421Z,50.00
2019-06-25T14:43:10.385Z,49.50
2019-06-25T14:45:37.407Z,50.40
2019-06-25T14:48:03.937Z,49.60
2019-06-25T14:50:30.734Z,49.10
2019-06-25T14:52:57.206Z,49.70
2019-06-25T14:55:23.974Z,48.70
2019-06-25T14:57:50.514Z,49.50
2019-06-25T15:00:16.976Z,48.60
2019-06-25T15:02:43.708Z,49.60
2019-06-25T15:05:10.419Z,49.30
2019-06-25T15:07:37.294Z,50.00
2019-06-25T15:10:04.062Z,49.30
2019-06-25T15:12:30.786Z,50.20
2019-06-25T15:14:57.723Z,51.10
2019-06-25T15:17:24.459Z,49.90
2019-06-25T15:19:50.915Z,50.40
2019-06-25T15:22:17.561Z,51.00
2019-06-25T15:24:44.067Z,50.20
2019-06-25T15:27:10.809Z,49.50
2019-06-25T15:29:37.417Z,51.10
2019-06-25T15:32:04.466Z,50.70
2019-06-25T15:34:30.924Z,50.50
2019-06-25T15:36:57.663Z,49.80
2019-06-25T15:39:24.227Z,50.30
2019-06-25T15:41:50.695Z,49.80
2019-06-25T15:44:17.175Z,50.60
2019-06-25T15:46:43.710Z,50.70
2019-06-25T15:49:10.219Z,49.90
2019-06-25T15:51:37.008Z,50.80
2019-06-25T15:54:03.922Z,50.70
2019-06-25T15:56:30.724Z,51.20
2019-06-25T15:58:57.335Z,51.40
2019-06-25T16:01:24.340Z,51.90
2019-06-25T16:03:50.834Z,52.60
2019-06-25T16:06:17.306Z,52.30
2019-06-25T16:08:43.857Z,51.80
2019-06-25T16:11:10.860Z,53.40
2019-06-25T16:13:37.739Z,52.50
2019-06-25T16:16:04.314Z,52.50
2019-06-25T16:18:31.038Z,54.30
2019-06-25T16:20:57.559Z,54.90
2019-06-25T16:23:24.513Z,54.70
2019-06-25T16:25:51.314Z,55.10
2019-06-25T16:28:17.813Z,56.50
2019-06-25T16:30:44.528Z,55.90
2019-06-25T16:33:11.242Z,57.10
2019-06-25T16:35:37.999Z,57.20
2019-06-25T16:38:04.877Z,57.90
2019-06-25T16:40:31.338Z,57.70
2019-06-25T16:42:57.826Z,58.30
2019-06-25T16:45:24.350Z,57.50
2019-06-25T16:47:50.808Z,57.80
2019-06-25T16:50:17.823Z,57.80
2019-06-25T16:52:44.773Z,58.40
2019-06-25T16:55:11.597Z,59.30
2019-06-25T16:57:38.427Z,58.40
2019-06-25T17:00:05.320Z,58.50
2019-06-25T17:02:38.811Z,57.90
2019-06-25T17:05:00.480Z,58.90
2019-06-25T17:07:26.927Z,58.20
2019-06-25T17:09:53.680Z,58.30
2019-06-25T17:12:20.381Z,58.80
2019-06-25T17:14:46.861Z,59.50
2019-06-25T17:17:13.411Z,59.30
2019-06-25T17:19:40.236Z,59.00
2019-06-25T17:22:06.748Z,58.70
2019-06-25T17:24:34.663Z,59.00
2019-06-25T17:27:01.636Z,59.20
2019-06-25T17:29:28.362Z,59.40
2019-06-25T17:31:55.319Z,59.30
2019-06-25T17:34:22.112Z,59.30
2019-06-25T17:36:49.078Z,59.10
2019-06-25T17:39:15.821Z,60.00
2019-06-25T17:41:42.598Z,59.90
2019-06-25T17:44:09.117Z,60.70
2019-06-25T17:46:35.625Z,60.70
2019-06-25T17:49:02.362Z,61.10
2019-06-25T17:51:29.429Z,60.90
2019-06-25T17:53:56.738Z,61.00
2019-06-25T17:56:24.287Z,61.60
2019-06-25T17:58:51.085Z,61.40
2019-06-25T18:01:18.121Z,62.20
2019-06-25T18:03:44.810Z,62.20
2019-06-25T18:06:11.804Z,62.60
2019-06-25T18:08:38.808Z,62.60
2019-06-25T18:11:05.749Z,62.60
2019-06-25T18:13:32.578Z,63.60
2019-06-25T18:15:59.051Z,63.60
2019-06-25T18:18:25.760Z,64.50
2019-06-25T18:20:52.396Z,65.00
2019-06-25T18:23:18.885Z,65.00
2019-06-25T18:25:45.606Z,65.90
2019-06-25T18:28:12.319Z,66.00
2019-06-25T18:30:39.088Z,66.20
2019-06-25T18:33:05.637Z,66.50
2019-06-25T18:35:32.690Z,66.80
2019-06-25T18:37:59.737Z,67.30
2019-06-25T18:40:26.458Z,66.80
2019-06-25T18:42:53.076Z,66.50
2019-06-25T18:45:19.826Z,66.20
2019-06-25T18:47:46.533Z,65.50
2019-06-25T18:50:13.038Z,66.10
2019-06-25T18:52:39.842Z,65.80
2019-06-25T18:55:06.683Z,65.60
2019-06-25T18:57:33.216Z,65.50
2019-06-25T19:00:00.051Z,65.50
2019-06-25T19:02:26.759Z,65.20
2019-06-25T19:04:53.545Z,65.10
2019-06-25T19:07:20.591Z,65.20
2019-06-25T19:09:47.051Z,65.00
2019-06-25T19:12:13.783Z,65.20
2019-06-25T19:14:40.822Z,65.10
2019-06-25T19:17:07.679Z,65.20
2019-06-25T19:19:35.502Z,65.20
2019-06-25T19:22:02.127Z,65.20
2019-06-25T19:24:28.906Z,65.40
2019-06-25T19:26:55.979Z,65.10
2019-06-25T19:29:22.754Z,65.30
2019-06-25T19:31:49.484Z,65.20
2019-06-25T19:34:16.177Z,65.00
2019-06-25T19:36:42.891Z,65.10
2019-06-25T19:39:09.382Z,65.20
2019-06-25T19:41:36.319Z,65.00
2019-06-25T19:44:02.764Z,65.10
2019-06-25T19:46:29.532Z,65.20
2019-06-25T19:48:56.322Z,65.20
2019-06-25T19:51:23.550Z,65.20
2019-06-25T19:53:50.257Z,65.00
2019-06-25T19:56:18.890Z,64.80
2019-06-25T19:58:45.516Z,65.00
2019-06-25T20:01:12.548Z,65.30
2019-06-25T20:03:39.051Z,65.20
2019-06-25T20:06:05.885Z,65.40
2019-06-25T20:08:32.577Z,65.60
2019-06-25T20:11:12.085Z,66.10
2019-06-25T20:13:27.423Z,66.70
2019-06-25T20:15:54.150Z,68.30
2019-06-25T20:18:20.626Z,69.40
2019-06-25T20:20:47.177Z,70.40
2019-06-25T20:23:14.292Z,71.20
2019-06-25T20:25:40.814Z,72.40
2019-06-25T20:28:07.386Z,73.20
2019-06-25T20:30:34.267Z,73.70
2019-06-25T20:33:00.830Z,74.40
2019-06-25T20:35:27.289Z,75.00
2019-06-25T20:37:54.025Z,75.10
2019-06-25T20:40:20.843Z,76.00
2019-06-25T20:42:47.314Z,76.10
2019-06-25T20:45:14.031Z,76.20
2019-06-25T20:47:40.509Z,76.40
2019-06-25T20:50:07.063Z,76.90
2019-06-25T20:52:33.849Z,77.00
2019-06-25T20:55:00.297Z,77.10
2019-06-25T20:57:26.757Z,77.50
2019-06-25T20:59:53.473Z,77.20
2019-06-25T21:02:20.455Z,77.40
2019-06-25T21:04:46.897Z,77.40
2019-06-25T21:07:13.632Z,77.90
2019-06-25T21:09:40.342Z,78.20
2019-06-25T21:12:07.422Z,78.60
2019-06-25T21:14:34.068Z,79.00
2019-06-25T21:17:01.173Z,79.10
2019-06-25T21:19:42.113Z,79.50
2019-06-25T21:21:56.523Z,79.60
2019-06-25T21:24:23.129Z,80.00
2019-06-25T21:26:49.599Z,80.20
2019-06-25T21:29:16.572Z,80.80
2019-06-25T21:31:43.270Z,80.60
2019-06-25T21:34:10.045Z,82.50
2019-06-25T21:36:36.690Z,81.40
2019-06-25T21:39:04.542Z,79.20
2019-06-25T21:41:31.585Z,78.30
2019-06-25T21:43:58.086Z,78.40
2019-06-25T21:46:24.794Z,77.70
2019-06-25T21:48:51.539Z,77.40
2019-06-25T21:51:17.990Z,77.20
2019-06-25T21:53:44.738Z,77.20
2019-06-25T21:56:11.439Z,77.90
2019-06-25T21:58:38.542Z,77.10
2019-06-25T22:01:05.357Z,76.90
2019-06-25T22:03:32.079Z,76.80
2019-06-25T22:05:58.533Z,76.50
2019-06-25T22:08:24.994Z,76.70
2019-06-25T22:10:51.957Z,76.80
2019-06-25T22:13:18.662Z,76.90
2019-06-25T22:15:45.140Z,77.00
2019-06-25T22:18:12.083Z,77.80
2019-06-25T22:20:38.951Z,77.40
2019-06-25T22:23:05.502Z,77.20
2019-06-25T22:25:32.234Z,77.40
2019-06-25T22:27:58.950Z,77.40
2019-06-25T22:30:25.423Z,77.40
2019-06-25T22:32:52.189Z,77.20
2019-06-25T22:35:18.927Z,76.90
2019-06-25T22:37:45.627Z,76.90
2019-06-25T22:40:12.099Z,76.80
2019-06-25T22:42:38.891Z,76.80
2019-06-25T22:45:05.630Z,76.90
2019-06-25T22:47:32.337Z,77.60
2019-06-25T22:49:59.062Z,77.80
2019-06-25T22:52:25.518Z,78.30
2019-06-25T22:54:52.378Z,78.70
2019-06-25T22:57:19.179Z,78.80
2019-06-25T22:59:45.658Z,79.20
2019-06-25T23:02:12.416Z,79.40
2019-06-25T23:04:38.979Z,80.00
2019-06-25T23:07:06.100Z,79.70
2019-06-25T23:09:32.644Z,80.00
2019-06-25T23:11:59.579Z,80.00
2019-06-25T23:14:26.298Z,80.10
2019-06-25T23:16:53.097Z,80.60
2019-06-25T23:19:19.565Z,80.70
2019-06-25T23:21:46.318Z,80.90
2019-06-25T23:24:12.770Z,81.20
2019-06-25T23:26:39.564Z,81.40
2019-06-25T23:29:06.185Z,81.50
2019-06-25T23:31:32.839Z,81.80
2019-06-25T23:33:59.548Z,82.30
2019-06-25T23:36:26.097Z,83.00
2019-06-25T23:38:53.221Z,83.20
2019-06-25T23:41:19.702Z,83.20
2019-06-25T23:43:46.170Z,83.40
2019-06-25T23:46:12.882Z,83.60
2019-06-25T23:48:39.710Z,83.80
2019-06-25T23:51:06.498Z,83.90
2019-06-25T23:53:34.618Z,84.00
2019-06-25T23:56:01.121Z,84.20
2019-06-25T23:58:27.587Z,84.20
